sensor_id;sensor_type;location;lat;lon;timestamp;temperature;humidity
10314;DHT22;5202;49.138;10.090;2023-06-22T00:02:36;20.10;99.90
10314;DHT22;5202;49.138;10.090;2023-06-22T00:05:05;20.00;99.90
10314;DHT22;5202;49.138;10.090;2023-06-22T00:07:33;20.00;99.90
10314;DHT22;5202;49.138;10.090;2023-06-22T00:10:01;20.00;99.90
10314;DHT22;5202;49.138;10.090;2023-06-22T00:12:30;20.00;99.90
10314;DHT22;5202;49.138;10.090;2023-06-22T00:15:00;20.00;99.90
10314;DHT22;5202;49.138;10.090;2023-06-22T00:17:28;20.00;99.90
10314;DHT22;5202;49.138;10.090;2023-06-22T00:19:56;19.90;99.90
10314;DHT22;5202;49.138;10.090;2023-06-22T00:22:25;20.00;99.90
10314;DHT22;5202;49.138;10.090;2023-06-22T00:24:56;19.90;99.90
10314;DHT22;5202;49.138;10.090;2023-06-22T00:27:24;19.90;99.90
10314;DHT22;5202;49.138;10.090;2023-06-22T00:29:53;19.80;99.90
10314;DHT22;5202;49.138;10.090;2023-06-22T00:32:22;19.80;99.90
10314;DHT22;5202;49.138;10.090;2023-06-22T00:34:55;19.70;99.90
10314;DHT22;5202;49.138;10.090;2023-06-22T00:37:23;19.70;99.90
10314;DHT22;5202;49.138;10.090;2023-06-22T00:39:52;19.60;99.90
10314;DHT22;5202;49.138;10.090;2023-06-22T00:42:21;19.60;99.90
10314;DHT22;5202;49.138;10.090;2023-06-22T00:44:49;19.50;99.90
10314;DHT22;5202;49.138;10.090;2023-06-22T00:47:18;19.40;99.90
10314;DHT22;5202;49.138;10.090;2023-06-22T00:49:51;19.40;99.90
10314;DHT22;5202;49.138;10.090;2023-06-22T00:52:20;19.40;99.90
10314;DHT22;5202;49.138;10.090;2023-06-22T00:54:56;19.30;99.90
10314;DHT22;5202;49.138;10.090;2023-06-22T00:57:26;19.30;99.90
10314;DHT22;5202;49.138;10.090;2023-06-22T00:59:55;19.30;99.90
10314;DHT22;5202;49.138;10.090;2023-06-22T01:02:24;19.20;99.90
10314;DHT22;5202;49.138;10.090;2023-06-22T01:04:54;19.20;99.90
10314;DHT22;5202;49.138;10.090;2023-06-22T01:07:28;19.20;99.90
10314;DHT22;5202;49.138;10.090;2023-06-22T01:10:06;19.30;99.90
10314;DHT22;5202;49.138;10.090;2023-06-22T01:12:42;19.40;99.90
10314;DHT22;5202;49.138;10.090;2023-06-22T01:15:18;19.40;99.90
10314;DHT22;5202;49.138;10.090;2023-06-22T01:17:50;19.40;99.90
10314;DHT22;5202;49.138;10.090;2023-06-22T01:20:23;19.40;99.90
10314;DHT22;5202;49.138;10.090;2023-06-22T01:23:02;19.40;99.90
10314;DHT22;5202;49.138;10.090;2023-06-22T01:25:43;19.40;99.90
10314;DHT22;5202;49.138;10.090;2023-06-22T01:28:24;19.40;99.90
10314;DHT22;5202;49.138;10.090;2023-06-22T01:31:16;19.60;99.90
10314;DHT22;5202;49.138;10.090;2023-06-22T01:33:50;19.60;99.90
10314;DHT22;5202;49.138;10.090;2023-06-22T01:36:20;19.50;99.90
10314;DHT22;5202;49.138;10.090;2023-06-22T01:38:49;19.40;99.90
10314;DHT22;5202;49.138;10.090;2023-06-22T01:41:19;19.40;99.90
10314;DHT22;5202;49.138;10.090;2023-06-22T01:43:49;19.40;99.90
10314;DHT22;5202;49.138;10.090;2023-06-22T01:46:20;19.40;99.90
10314;DHT22;5202;49.138;10.090;2023-06-22T01:48:49;19.40;99.90
10314;DHT22;5202;49.138;10.090;2023-06-22T01:51:18;19.30;99.90
10314;DHT22;5202;49.138;10.090;2023-06-22T01:53:46;19.30;99.90
10314;DHT22;5202;49.138;10.090;2023-06-22T01:56:17;19.30;99.90
10314;DHT22;5202;49.138;10.090;2023-06-22T01:58:50;19.20;99.90
10314;DHT22;5202;49.138;10.090;2023-06-22T02:01:26;19.10;99.90
10314;DHT22;5202;49.138;10.090;2023-06-22T02:04:21;19.00;99.90
10314;DHT22;5202;49.138;10.090;2023-06-22T02:07:07;18.90;99.90
10314;DHT22;5202;49.138;10.090;2023-06-22T02:09:38;18.90;99.90
10314;DHT22;5202;49.138;10.090;2023-06-22T02:12:11;18.90;99.90
10314;DHT22;5202;49.138;10.090;2023-06-22T02:14:42;19.00;99.90
10314;DHT22;5202;49.138;10.090;2023-06-22T02:17:11;19.00;99.90
10314;DHT22;5202;49.138;10.090;2023-06-22T02:19:41;19.00;99.90
10314;DHT22;5202;49.138;10.090;2023-06-22T02:22:10;18.90;99.90
10314;DHT22;5202;49.138;10.090;2023-06-22T02:24:40;19.00;99.90
10314;DHT22;5202;49.138;10.090;2023-06-22T02:27:09;19.00;99.90
10314;DHT22;5202;49.138;10.090;2023-06-22T02:29:37;18.90;99.90
10314;DHT22;5202;49.138;10.090;2023-06-22T02:32:07;18.90;99.90
10314;DHT22;5202;49.138;10.090;2023-06-22T02:34:35;18.80;99.90
10314;DHT22;5202;49.138;10.090;2023-06-22T02:37:04;18.80;99.90
10314;DHT22;5202;49.138;10.090;2023-06-22T02:39:32;18.80;99.90
10314;DHT22;5202;49.138;10.090;2023-06-22T02:42:01;18.80;99.90
10314;DHT22;5202;49.138;10.090;2023-06-22T02:44:29;18.80;99.90
10314;DHT22;5202;49.138;10.090;2023-06-22T02:46:57;18.70;99.90
10314;DHT22;5202;49.138;10.090;2023-06-22T02:49:27;18.60;99.90
10314;DHT22;5202;49.138;10.090;2023-06-22T02:51:57;18.60;99.90
10314;DHT22;5202;49.138;10.090;2023-06-22T02:54:26;18.60;99.90
10314;DHT22;5202;49.138;10.090;2023-06-22T02:56:55;18.60;99.90
10314;DHT22;5202;49.138;10.090;2023-06-22T02:59:23;18.50;99.90
10314;DHT22;5202;49.138;10.090;2023-06-22T03:01:59;18.60;99.90
10314;DHT22;5202;49.138;10.090;2023-06-22T03:04:33;18.60;99.90
10314;DHT22;5202;49.138;10.090;2023-06-22T03:07:02;18.50;99.90
10314;DHT22;5202;49.138;10.090;2023-06-22T03:09:32;18.50;99.90
10314;DHT22;5202;49.138;10.090;2023-06-22T03:12:01;18.50;99.90
10314;DHT22;5202;49.138;10.090;2023-06-22T03:14:38;18.50;99.90
10314;DHT22;5202;49.138;10.090;2023-06-22T03:17:06;18.60;99.90
10314;DHT22;5202;49.138;10.090;2023-06-22T03:19:37;18.50;99.90
10314;DHT22;5202;49.138;10.090;2023-06-22T03:22:05;18.50;99.90
10314;DHT22;5202;49.138;10.090;2023-06-22T03:24:34;18.50;99.90
10314;DHT22;5202;49.138;10.090;2023-06-22T03:27:04;18.60;99.90
10314;DHT22;5202;49.138;10.090;2023-06-22T03:29:34;18.60;99.90
10314;DHT22;5202;49.138;10.090;2023-06-22T03:32:02;18.60;99.90
10314;DHT22;5202;49.138;10.090;2023-06-22T03:34:33;18.70;99.90
10314;DHT22;5202;49.138;10.090;2023-06-22T03:37:05;18.70;99.90
10314;DHT22;5202;49.138;10.090;2023-06-22T03:39:33;18.70;99.90
10314;DHT22;5202;49.138;10.090;2023-06-22T03:42:03;18.70;99.90
10314;DHT22;5202;49.138;10.090;2023-06-22T03:44:31;18.70;99.90
10314;DHT22;5202;49.138;10.090;2023-06-22T03:47:00;18.70;99.90
10314;DHT22;5202;49.138;10.090;2023-06-22T03:49:29;18.70;99.90
10314;DHT22;5202;49.138;10.090;2023-06-22T03:51:57;18.80;99.90
10314;DHT22;5202;49.138;10.090;2023-06-22T03:54:27;18.80;99.90
10314;DHT22;5202;49.138;10.090;2023-06-22T03:56:57;18.80;99.90
10314;DHT22;5202;49.138;10.090;2023-06-22T03:59:26;18.90;99.90
10314;DHT22;5202;49.138;10.090;2023-06-22T04:01:58;18.90;99.90
10314;DHT22;5202;49.138;10.090;2023-06-22T04:04:27;19.00;99.90
10314;DHT22;5202;49.138;10.090;2023-06-22T04:07:23;19.00;99.90
10314;DHT22;5202;49.138;10.090;2023-06-22T04:09:53;19.00;99.90
10314;DHT22;5202;49.138;10.090;2023-06-22T04:12:22;19.00;99.90
10314;DHT22;5202;49.138;10.090;2023-06-22T04:14:50;19.10;99.90
10314;DHT22;5202;49.138;10.090;2023-06-22T04:17:19;19.10;99.90
10314;DHT22;5202;49.138;10.090;2023-06-22T04:19:47;19.10;99.90
10314;DHT22;5202;49.138;10.090;2023-06-22T04:22:15;19.20;99.90
10314;DHT22;5202;49.138;10.090;2023-06-22T04:24:43;19.20;99.90
10314;DHT22;5202;49.138;10.090;2023-06-22T04:27:13;19.30;99.90
10314;DHT22;5202;49.138;10.090;2023-06-22T04:29:41;19.30;99.90
10314;DHT22;5202;49.138;10.090;2023-06-22T04:32:15;19.40;99.90
10314;DHT22;5202;49.138;10.090;2023-06-22T04:34:44;19.40;99.90
10314;DHT22;5202;49.138;10.090;2023-06-22T04:37:12;19.40;99.90
10314;DHT22;5202;49.138;10.090;2023-06-22T04:39:42;19.50;99.90
10314;DHT22;5202;49.138;10.090;2023-06-22T04:42:13;19.50;99.90
10314;DHT22;5202;49.138;10.090;2023-06-22T04:44:42;19.60;99.90
10314;DHT22;5202;49.138;10.090;2023-06-22T04:47:10;19.60;99.90
10314;DHT22;5202;49.138;10.090;2023-06-22T04:49:39;19.60;99.90
10314;DHT22;5202;49.138;10.090;2023-06-22T04:52:11;19.60;99.90
10314;DHT22;5202;49.138;10.090;2023-06-22T04:54:40;19.70;99.90
10314;DHT22;5202;49.138;10.090;2023-06-22T04:57:16;19.80;99.90
10314;DHT22;5202;49.138;10.090;2023-06-22T04:59:44;19.80;99.90
10314;DHT22;5202;49.138;10.090;2023-06-22T05:02:13;19.90;99.90
10314;DHT22;5202;49.138;10.090;2023-06-22T05:04:42;19.90;99.90
10314;DHT22;5202;49.138;10.090;2023-06-22T05:07:11;20.00;99.90
10314;DHT22;5202;49.138;10.090;2023-06-22T05:09:39;20.00;99.90
10314;DHT22;5202;49.138;10.090;2023-06-22T05:12:08;20.10;99.90
10314;DHT22;5202;49.138;10.090;2023-06-22T05:14:38;20.10;99.90
10314;DHT22;5202;49.138;10.090;2023-06-22T05:17:07;20.20;99.90
10314;DHT22;5202;49.138;10.090;2023-06-22T05:19:46;20.20;99.90
10314;DHT22;5202;49.138;10.090;2023-06-22T05:22:15;20.20;99.90
10314;DHT22;5202;49.138;10.090;2023-06-22T05:24:44;20.30;99.90
10314;DHT22;5202;49.138;10.090;2023-06-22T05:27:12;20.30;99.90
10314;DHT22;5202;49.138;10.090;2023-06-22T05:29:42;20.40;99.90
10314;DHT22;5202;49.138;10.090;2023-06-22T05:32:10;20.50;99.90
10314;DHT22;5202;49.138;10.090;2023-06-22T05:34:39;20.60;99.90
10314;DHT22;5202;49.138;10.090;2023-06-22T05:37:07;20.70;99.90
10314;DHT22;5202;49.138;10.090;2023-06-22T05:39:37;20.70;99.90
10314;DHT22;5202;49.138;10.090;2023-06-22T05:42:05;20.80;99.90
10314;DHT22;5202;49.138;10.090;2023-06-22T05:44:36;20.90;99.90
10314;DHT22;5202;49.138;10.090;2023-06-22T05:47:08;21.00;99.90
10314;DHT22;5202;49.138;10.090;2023-06-22T05:49:36;21.10;99.90
10314;DHT22;5202;49.138;10.090;2023-06-22T05:52:04;21.20;99.90
10314;DHT22;5202;49.138;10.090;2023-06-22T05:54:33;21.20;99.90
10314;DHT22;5202;49.138;10.090;2023-06-22T05:57:03;21.30;99.90
10314;DHT22;5202;49.138;10.090;2023-06-22T05:59:31;21.40;99.90
10314;DHT22;5202;49.138;10.090;2023-06-22T06:02:00;21.40;99.90
10314;DHT22;5202;49.138;10.090;2023-06-22T06:04:34;21.40;99.90
10314;DHT22;5202;49.138;10.090;2023-06-22T06:07:08;21.50;99.90
10314;DHT22;5202;49.138;10.090;2023-06-22T06:09:36;21.60;99.90
10314;DHT22;5202;49.138;10.090;2023-06-22T06:12:05;21.70;99.90
10314;DHT22;5202;49.138;10.090;2023-06-22T06:14:34;21.80;99.90
10314;DHT22;5202;49.138;10.090;2023-06-22T06:17:02;21.90;99.90
10314;DHT22;5202;49.138;10.090;2023-06-22T06:19:32;22.00;99.90
10314;DHT22;5202;49.138;10.090;2023-06-22T06:22:01;22.00;99.90
10314;DHT22;5202;49.138;10.090;2023-06-22T06:24:30;22.10;99.90
10314;DHT22;5202;49.138;10.090;2023-06-22T06:26:58;22.20;99.90
10314;DHT22;5202;49.138;10.090;2023-06-22T06:29:26;22.30;99.90
10314;DHT22;5202;49.138;10.090;2023-06-22T06:31:54;22.30;99.90
10314;DHT22;5202;49.138;10.090;2023-06-22T06:34:24;22.40;99.90
10314;DHT22;5202;49.138;10.090;2023-06-22T06:36:54;22.50;99.90
10314;DHT22;5202;49.138;10.090;2023-06-22T06:39:23;22.60;99.90
10314;DHT22;5202;49.138;10.090;2023-06-22T06:41:52;22.70;99.90
10314;DHT22;5202;49.138;10.090;2023-06-22T06:44:20;22.70;99.90
10314;DHT22;5202;49.138;10.090;2023-06-22T06:46:48;22.90;99.90
10314;DHT22;5202;49.138;10.090;2023-06-22T06:49:17;23.00;99.90
10314;DHT22;5202;49.138;10.090;2023-06-22T06:51:45;23.00;99.90
10314;DHT22;5202;49.138;10.090;2023-06-22T06:54:15;23.20;99.90
10314;DHT22;5202;49.138;10.090;2023-06-22T06:56:43;23.20;99.90
10314;DHT22;5202;49.138;10.090;2023-06-22T06:59:15;23.30;99.90
10314;DHT22;5202;49.138;10.090;2023-06-22T07:01:44;23.40;99.90
10314;DHT22;5202;49.138;10.090;2023-06-22T07:04:15;23.60;99.90
10314;DHT22;5202;49.138;10.090;2023-06-22T07:06:43;23.70;99.90
10314;DHT22;5202;49.138;10.090;2023-06-22T07:09:12;23.80;99.90
10314;DHT22;5202;49.138;10.090;2023-06-22T07:11:41;23.90;99.90
10314;DHT22;5202;49.138;10.090;2023-06-22T07:14:09;24.10;99.90
10314;DHT22;5202;49.138;10.090;2023-06-22T07:16:38;24.20;99.10
10314;DHT22;5202;49.138;10.090;2023-06-22T07:19:07;24.30;99.10
10314;DHT22;5202;49.138;10.090;2023-06-22T07:21:36;24.40;98.30
10314;DHT22;5202;49.138;10.090;2023-06-22T07:24:05;24.50;98.20
10314;DHT22;5202;49.138;10.090;2023-06-22T07:26:34;24.60;97.60
10314;DHT22;5202;49.138;10.090;2023-06-22T07:29:03;24.60;97.90
10314;DHT22;5202;49.138;10.090;2023-06-22T07:31:32;24.70;96.70
10314;DHT22;5202;49.138;10.090;2023-06-22T07:34:00;24.70;96.60
10314;DHT22;5202;49.138;10.090;2023-06-22T07:36:29;24.80;96.40
10314;DHT22;5202;49.138;10.090;2023-06-22T07:38:58;24.80;96.50
10314;DHT22;5202;49.138;10.090;2023-06-22T07:41:26;24.90;96.70
10314;DHT22;5202;49.138;10.090;2023-06-22T07:43:54;24.90;97.00
10314;DHT22;5202;49.138;10.090;2023-06-22T07:46:24;25.00;96.00
10314;DHT22;5202;49.138;10.090;2023-06-22T07:48:52;25.10;95.90
10314;DHT22;5202;49.138;10.090;2023-06-22T07:51:23;25.20;95.50
10314;DHT22;5202;49.138;10.090;2023-06-22T07:53:51;25.40;95.60
10314;DHT22;5202;49.138;10.090;2023-06-22T07:56:20;25.50;95.30
10314;DHT22;5202;49.138;10.090;2023-06-22T07:58:49;25.60;95.10
10314;DHT22;5202;49.138;10.090;2023-06-22T08:01:17;25.80;95.30
10314;DHT22;5202;49.138;10.090;2023-06-22T08:03:55;25.80;94.80
10314;DHT22;5202;49.138;10.090;2023-06-22T08:06:24;26.00;94.80
10314;DHT22;5202;49.138;10.090;2023-06-22T08:08:53;26.20;94.40
10314;DHT22;5202;49.138;10.090;2023-06-22T08:11:23;26.30;94.10
10314;DHT22;5202;49.138;10.090;2023-06-22T08:13:53;26.40;93.60
10314;DHT22;5202;49.138;10.090;2023-06-22T08:16:24;26.40;93.50
10314;DHT22;5202;49.138;10.090;2023-06-22T08:18:52;26.50;92.70
10314;DHT22;5202;49.138;10.090;2023-06-22T08:21:23;26.50;91.70
10314;DHT22;5202;49.138;10.090;2023-06-22T08:23:52;26.70;91.90
10314;DHT22;5202;49.138;10.090;2023-06-22T08:26:20;26.80;91.60
10314;DHT22;5202;49.138;10.090;2023-06-22T08:28:48;26.90;91.20
10314;DHT22;5202;49.138;10.090;2023-06-22T08:31:17;26.90;91.10
10314;DHT22;5202;49.138;10.090;2023-06-22T08:33:45;27.00;91.10
10314;DHT22;5202;49.138;10.090;2023-06-22T08:36:16;27.10;90.70
10314;DHT22;5202;49.138;10.090;2023-06-22T08:38:45;27.20;90.80
10314;DHT22;5202;49.138;10.090;2023-06-22T08:41:18;27.30;90.80
10314;DHT22;5202;49.138;10.090;2023-06-22T08:43:47;27.30;90.30
10314;DHT22;5202;49.138;10.090;2023-06-22T08:46:15;27.30;90.00
10314;DHT22;5202;49.138;10.090;2023-06-22T08:48:46;27.30;90.10
10314;DHT22;5202;49.138;10.090;2023-06-22T08:51:15;27.30;90.10
10314;DHT22;5202;49.138;10.090;2023-06-22T08:53:44;27.40;90.20
10314;DHT22;5202;49.138;10.090;2023-06-22T08:56:12;27.50;90.10
10314;DHT22;5202;49.138;10.090;2023-06-22T08:58:41;27.60;89.30
10314;DHT22;5202;49.138;10.090;2023-06-22T09:01:09;27.70;89.70
10314;DHT22;5202;49.138;10.090;2023-06-22T09:03:38;27.80;89.30
10314;DHT22;5202;49.138;10.090;2023-06-22T09:06:06;27.90;90.10
10314;DHT22;5202;49.138;10.090;2023-06-22T09:08:36;28.10;89.90
10314;DHT22;5202;49.138;10.090;2023-06-22T09:11:05;28.10;89.40
10314;DHT22;5202;49.138;10.090;2023-06-22T09:13:33;28.10;88.40
10314;DHT22;5202;49.138;10.090;2023-06-22T09:16:02;28.20;89.10
10314;DHT22;5202;49.138;10.090;2023-06-22T09:18:30;28.30;90.00
10314;DHT22;5202;49.138;10.090;2023-06-22T09:20:58;28.50;89.30
10314;DHT22;5202;49.138;10.090;2023-06-22T09:23:26;28.60;88.70
10314;DHT22;5202;49.138;10.090;2023-06-22T09:25:55;28.70;88.90
10314;DHT22;5202;49.138;10.090;2023-06-22T09:28:24;28.90;88.20
10314;DHT22;5202;49.138;10.090;2023-06-22T09:30:52;28.90;89.40
10314;DHT22;5202;49.138;10.090;2023-06-22T09:33:25;29.00;87.90
10314;DHT22;5202;49.138;10.090;2023-06-22T09:35:53;29.10;86.60
10314;DHT22;5202;49.138;10.090;2023-06-22T09:38:21;29.20;83.70
10314;DHT22;5202;49.138;10.090;2023-06-22T09:40:49;29.20;82.80
10314;DHT22;5202;49.138;10.090;2023-06-22T09:43:18;29.30;82.40
10314;DHT22;5202;49.138;10.090;2023-06-22T09:45:47;29.30;84.00
10314;DHT22;5202;49.138;10.090;2023-06-22T09:48:16;29.40;83.90
10314;DHT22;5202;49.138;10.090;2023-06-22T09:50:44;29.50;84.40
10314;DHT22;5202;49.138;10.090;2023-06-22T09:53:12;29.70;84.50
10314;DHT22;5202;49.138;10.090;2023-06-22T09:55:41;29.80;82.20
10314;DHT22;5202;49.138;10.090;2023-06-22T09:58:10;29.90;81.20
10314;DHT22;5202;49.138;10.090;2023-06-22T10:00:41;30.10;82.00
10314;DHT22;5202;49.138;10.090;2023-06-22T10:03:13;30.10;80.60
10314;DHT22;5202;49.138;10.090;2023-06-22T10:05:49;30.20;79.60
10314;DHT22;5202;49.138;10.090;2023-06-22T10:08:19;30.30;79.90
10314;DHT22;5202;49.138;10.090;2023-06-22T10:10:47;30.30;79.30
10314;DHT22;5202;49.138;10.090;2023-06-22T10:13:18;30.40;78.70
10314;DHT22;5202;49.138;10.090;2023-06-22T10:15:47;30.60;79.10
10314;DHT22;5202;49.138;10.090;2023-06-22T10:18:19;30.60;77.30
10314;DHT22;5202;49.138;10.090;2023-06-22T10:20:49;30.70;79.30
10314;DHT22;5202;49.138;10.090;2023-06-22T10:23:19;30.80;79.30
10314;DHT22;5202;49.138;10.090;2023-06-22T10:25:47;30.80;79.00
10314;DHT22;5202;49.138;10.090;2023-06-22T10:28:16;30.90;77.60
10314;DHT22;5202;49.138;10.090;2023-06-22T10:30:44;31.00;76.80
10314;DHT22;5202;49.138;10.090;2023-06-22T10:33:13;31.00;76.20
10314;DHT22;5202;49.138;10.090;2023-06-22T10:35:43;31.10;77.30
10314;DHT22;5202;49.138;10.090;2023-06-22T10:38:11;31.20;78.00
10314;DHT22;5202;49.138;10.090;2023-06-22T10:40:39;31.30;77.40
10314;DHT22;5202;49.138;10.090;2023-06-22T10:43:08;31.20;74.60
10314;DHT22;5202;49.138;10.090;2023-06-22T10:45:36;31.20;74.00
10314;DHT22;5202;49.138;10.090;2023-06-22T10:48:04;31.30;75.10
10314;DHT22;5202;49.138;10.090;2023-06-22T10:50:33;31.40;74.90
10314;DHT22;5202;49.138;10.090;2023-06-22T10:53:03;31.60;74.20
10314;DHT22;5202;49.138;10.090;2023-06-22T10:55:31;31.60;70.60
10314;DHT22;5202;49.138;10.090;2023-06-22T10:58:19;31.70;72.60
10314;DHT22;5202;49.138;10.090;2023-06-22T11:00:47;31.70;70.70
10314;DHT22;5202;49.138;10.090;2023-06-22T11:03:16;31.70;71.90
10314;DHT22;5202;49.138;10.090;2023-06-22T11:05:44;31.80;71.80
10314;DHT22;5202;49.138;10.090;2023-06-22T11:08:16;31.90;70.20
10314;DHT22;5202;49.138;10.090;2023-06-22T11:10:44;32.10;71.80
10314;DHT22;5202;49.138;10.090;2023-06-22T11:13:13;32.00;68.10
10314;DHT22;5202;49.138;10.090;2023-06-22T11:15:41;32.10;69.70
10314;DHT22;5202;49.138;10.090;2023-06-22T11:18:09;32.10;71.20
10314;DHT22;5202;49.138;10.090;2023-06-22T11:20:37;32.20;68.30
10314;DHT22;5202;49.138;10.090;2023-06-22T11:23:07;32.10;67.50
10314;DHT22;5202;49.138;10.090;2023-06-22T11:25:37;32.10;69.00
10314;DHT22;5202;49.138;10.090;2023-06-22T11:28:05;32.30;70.90
10314;DHT22;5202;49.138;10.090;2023-06-22T11:30:34;32.50;71.90
10314;DHT22;5202;49.138;10.090;2023-06-22T11:33:02;32.90;71.90
10314;DHT22;5202;49.138;10.090;2023-06-22T11:35:31;33.00;69.30
10314;DHT22;5202;49.138;10.090;2023-06-22T11:37:59;33.10;68.40
10314;DHT22;5202;49.138;10.090;2023-06-22T11:40:27;32.80;64.00
10314;DHT22;5202;49.138;10.090;2023-06-22T11:42:57;32.60;65.30
10314;DHT22;5202;49.138;10.090;2023-06-22T11:45:27;32.60;67.40
10314;DHT22;5202;49.138;10.090;2023-06-22T11:47:55;32.70;66.50
10314;DHT22;5202;49.138;10.090;2023-06-22T11:50:23;32.70;66.90
10314;DHT22;5202;49.138;10.090;2023-06-22T11:52:52;32.80;68.20
10314;DHT22;5202;49.138;10.090;2023-06-22T11:55:20;32.80;68.30
10314;DHT22;5202;49.138;10.090;2023-06-22T11:57:54;33.00;68.30
10314;DHT22;5202;49.138;10.090;2023-06-22T12:00:24;33.00;67.60
10314;DHT22;5202;49.138;10.090;2023-06-22T12:02:56;33.10;66.10
10314;DHT22;5202;49.138;10.090;2023-06-22T12:05:27;33.20;68.10
10314;DHT22;5202;49.138;10.090;2023-06-22T12:08:06;33.30;67.40
10314;DHT22;5202;49.138;10.090;2023-06-22T12:10:34;33.30;66.20
10314;DHT22;5202;49.138;10.090;2023-06-22T12:13:03;33.40;64.90
10314;DHT22;5202;49.138;10.090;2023-06-22T12:15:32;33.30;64.80
10314;DHT22;5202;49.138;10.090;2023-06-22T12:18:01;33.40;66.30
10314;DHT22;5202;49.138;10.090;2023-06-22T12:20:29;33.60;66.90
10314;DHT22;5202;49.138;10.090;2023-06-22T12:22:58;33.80;66.00
10314;DHT22;5202;49.138;10.090;2023-06-22T12:25:27;33.90;65.80
10314;DHT22;5202;49.138;10.090;2023-06-22T12:27:55;34.00;65.40
10314;DHT22;5202;49.138;10.090;2023-06-22T12:30:23;34.00;64.30
10314;DHT22;5202;49.138;10.090;2023-06-22T12:32:53;34.10;65.60
10314;DHT22;5202;49.138;10.090;2023-06-22T12:35:23;34.00;65.70
10314;DHT22;5202;49.138;10.090;2023-06-22T12:37:51;33.90;63.80
10314;DHT22;5202;49.138;10.090;2023-06-22T12:40:19;33.80;63.20
10314;DHT22;5202;49.138;10.090;2023-06-22T12:42:48;33.60;65.10
10314;DHT22;5202;49.138;10.090;2023-06-22T12:45:17;33.50;63.80
10314;DHT22;5202;49.138;10.090;2023-06-22T12:47:47;33.30;64.10
10314;DHT22;5202;49.138;10.090;2023-06-22T12:50:18;33.30;64.60
10314;DHT22;5202;49.138;10.090;2023-06-22T12:52:46;33.10;64.80
10314;DHT22;5202;49.138;10.090;2023-06-22T12:55:15;33.10;64.30
10314;DHT22;5202;49.138;10.090;2023-06-22T12:57:43;33.00;64.60
10314;DHT22;5202;49.138;10.090;2023-06-22T13:00:12;32.90;65.70
10314;DHT22;5202;49.138;10.090;2023-06-22T13:02:41;32.90;67.20
10314;DHT22;5202;49.138;10.090;2023-06-22T13:05:09;32.90;66.20
10314;DHT22;5202;49.138;10.090;2023-06-22T13:07:39;33.10;66.40
10314;DHT22;5202;49.138;10.090;2023-06-22T13:10:09;33.20;66.80
10314;DHT22;5202;49.138;10.090;2023-06-22T13:12:37;33.20;65.60
10314;DHT22;5202;49.138;10.090;2023-06-22T13:15:06;33.20;64.80
10314;DHT22;5202;49.138;10.090;2023-06-22T13:17:35;33.20;65.60
10314;DHT22;5202;49.138;10.090;2023-06-22T13:20:04;33.10;64.00
10314;DHT22;5202;49.138;10.090;2023-06-22T13:22:34;32.90;62.80
10314;DHT22;5202;49.138;10.090;2023-06-22T13:25:09;32.90;66.00
10314;DHT22;5202;49.138;10.090;2023-06-22T13:27:39;32.80;66.00
10314;DHT22;5202;49.138;10.090;2023-06-22T13:30:09;32.80;66.00
10314;DHT22;5202;49.138;10.090;2023-06-22T13:32:41;32.80;67.10
10314;DHT22;5202;49.138;10.090;2023-06-22T13:35:10;32.70;67.90
10314;DHT22;5202;49.138;10.090;2023-06-22T13:37:39;32.60;66.60
10314;DHT22;5202;49.138;10.090;2023-06-22T13:40:10;32.60;66.70
10314;DHT22;5202;49.138;10.090;2023-06-22T13:42:38;32.50;67.10
10314;DHT22;5202;49.138;10.090;2023-06-22T13:45:07;32.40;67.40
10314;DHT22;5202;49.138;10.090;2023-06-22T13:47:36;32.30;66.20
10314;DHT22;5202;49.138;10.090;2023-06-22T13:50:06;32.10;65.20
10314;DHT22;5202;49.138;10.090;2023-06-22T13:52:35;32.00;64.80
10314;DHT22;5202;49.138;10.090;2023-06-22T13:55:03;32.00;65.90
10314;DHT22;5202;49.138;10.090;2023-06-22T13:57:33;31.90;65.90
10314;DHT22;5202;49.138;10.090;2023-06-22T14:00:02;32.00;67.30
10314;DHT22;5202;49.138;10.090;2023-06-22T14:02:37;32.10;68.00
10314;DHT22;5202;49.138;10.090;2023-06-22T14:05:06;32.10;68.80
10314;DHT22;5202;49.138;10.090;2023-06-22T14:07:35;32.10;68.60
10314;DHT22;5202;49.138;10.090;2023-06-22T14:10:05;32.10;67.10
10314;DHT22;5202;49.138;10.090;2023-06-22T14:12:35;32.10;67.80
10314;DHT22;5202;49.138;10.090;2023-06-22T14:15:04;32.30;67.00
10314;DHT22;5202;49.138;10.090;2023-06-22T14:17:33;32.40;67.10
10314;DHT22;5202;49.138;10.090;2023-06-22T14:20:01;32.60;66.50
10314;DHT22;5202;49.138;10.090;2023-06-22T14:22:30;32.70;65.90
10314;DHT22;5202;49.138;10.090;2023-06-22T14:24:59;32.90;65.20
10314;DHT22;5202;49.138;10.090;2023-06-22T14:27:28;33.10;66.00
10314;DHT22;5202;49.138;10.090;2023-06-22T14:29:58;33.30;67.40
10314;DHT22;5202;49.138;10.090;2023-06-22T14:32:27;33.60;64.80
10314;DHT22;5202;49.138;10.090;2023-06-22T14:34:57;33.60;62.70
10314;DHT22;5202;49.138;10.090;2023-06-22T14:37:25;33.60;61.60
10314;DHT22;5202;49.138;10.090;2023-06-22T14:39:54;33.20;57.20
10314;DHT22;5202;49.138;10.090;2023-06-22T14:42:22;33.00;55.40
10314;DHT22;5202;49.138;10.090;2023-06-22T14:44:50;32.80;55.90
10314;DHT22;5202;49.138;10.090;2023-06-22T14:47:20;32.80;55.30
10314;DHT22;5202;49.138;10.090;2023-06-22T14:49:48;32.80;55.30
10314;DHT22;5202;49.138;10.090;2023-06-22T14:52:16;32.90;55.60
10314;DHT22;5202;49.138;10.090;2023-06-22T14:54:45;33.00;56.70
10314;DHT22;5202;49.138;10.090;2023-06-22T14:57:13;33.20;56.80
10314;DHT22;5202;49.138;10.090;2023-06-22T14:59:44;33.40;56.70
10314;DHT22;5202;49.138;10.090;2023-06-22T15:02:13;33.40;53.90
10314;DHT22;5202;49.138;10.090;2023-06-22T15:04:42;33.30;53.10
10314;DHT22;5202;49.138;10.090;2023-06-22T15:07:11;33.20;53.80
10314;DHT22;5202;49.138;10.090;2023-06-22T15:09:39;33.30;56.10
10314;DHT22;5202;49.138;10.090;2023-06-22T15:12:09;33.30;55.70
10314;DHT22;5202;49.138;10.090;2023-06-22T15:14:39;33.50;55.00
10314;DHT22;5202;49.138;10.090;2023-06-22T15:17:08;33.30;52.60
10314;DHT22;5202;49.138;10.090;2023-06-22T15:19:37;33.30;53.80
10314;DHT22;5202;49.138;10.090;2023-06-22T15:22:07;33.20;52.20
10314;DHT22;5202;49.138;10.090;2023-06-22T15:24:35;33.10;52.90
10314;DHT22;5202;49.138;10.090;2023-06-22T15:27:04;33.20;53.00
10314;DHT22;5202;49.138;10.090;2023-06-22T15:29:33;33.40;54.30
10314;DHT22;5202;49.138;10.090;2023-06-22T15:32:01;33.30;52.40
10314;DHT22;5202;49.138;10.090;2023-06-22T15:34:30;33.00;53.40
10314;DHT22;5202;49.138;10.090;2023-06-22T15:36:58;33.00;53.60
10314;DHT22;5202;49.138;10.090;2023-06-22T15:39:28;32.80;53.20
10314;DHT22;5202;49.138;10.090;2023-06-22T15:41:56;32.80;54.10
10314;DHT22;5202;49.138;10.090;2023-06-22T15:44:24;32.80;55.00
10314;DHT22;5202;49.138;10.090;2023-06-22T15:46:53;32.80;54.60